sensor_id;sensor_type;location;lat;lon;timestamp;pressure;altitude;pressure_sealevel;temperature;humidity
37200;BME280;23096;50.892;16.746;2022-11-21T00:00:21;98431.95;;;-1.91;71.70
37200;BME280;23096;50.892;16.746;2022-11-21T00:02:47;98428.99;;;-1.91;71.72
37200;BME280;23096;50.892;16.746;2022-11-21T00:05:13;98421.02;;;-1.92;71.67
37200;BME280;23096;50.892;16.746;2022-11-21T00:07:39;98418.88;;;-1.94;71.63
37200;BME280;23096;50.892;16.746;2022-11-21T00:10:05;98407.09;;;-1.95;71.64
37200;BME280;23096;50.892;16.746;2022-11-21T00:12:40;98403.28;;;-1.98;71.59
37200;BME280;23096;50.892;16.746;2022-11-21T00:15:06;98417.60;;;-1.99;71.54
37200;BME280;23096;50.892;16.746;2022-11-21T00:17:32;98412.53;;;-2.00;71.63
37200;BME280;23096;50.892;16.746;2022-11-21T00:19:58;98407.08;;;-1.98;71.68
37200;BME280;23096;50.892;16.746;2022-11-21T00:22:24;98399.91;;;-2.00;71.61
37200;BME280;23096;50.892;16.746;2022-11-21T00:24:50;98402.44;;;-2.00;71.61
37200;BME280;23096;50.892;16.746;2022-11-21T00:27:15;98400.77;;;-1.98;71.70
37200;BME280;23096;50.892;16.746;2022-11-21T00:29:41;98404.98;;;-1.94;71.76
37200;BME280;23096;50.892;16.746;2022-11-21T00:32:07;98406.24;;;-1.94;71.70
37200;BME280;23096;50.892;16.746;2022-11-21T00:34:33;98410.45;;;-1.96;71.69
37200;BME280;23096;50.892;16.746;2022-11-21T00:36:59;98408.36;;;-1.90;71.88
37200;BME280;23096;50.892;16.746;2022-11-21T00:39:25;98411.77;;;-1.84;71.96
37200;BME280;23096;50.892;16.746;2022-11-21T00:41:51;98410.56;;;-1.78;71.98
37200;BME280;23096;50.892;16.746;2022-11-21T00:44:16;98409.28;;;-1.75;71.90
37200;BME280;23096;50.892;16.746;2022-11-21T00:46:42;98402.97;;;-1.75;71.84
37200;BME280;23096;50.892;16.746;2022-11-21T00:49:08;98399.63;;;-1.74;71.83
37200;BME280;23096;50.892;16.746;2022-11-21T00:51:34;98404.69;;;-1.72;71.88
37200;BME280;23096;50.892;16.746;2022-11-21T00:54:02;98397.09;;;-1.69;71.98
37200;BME280;23096;50.892;16.746;2022-11-21T00:56:28;98397.55;;;-1.66;71.99
37200;BME280;23096;50.892;16.746;2022-11-21T00:58:54;98395.03;;;-1.65;72.03
37200;BME280;23096;50.892;16.746;2022-11-21T01:01:20;98390.83;;;-1.61;72.06
37200;BME280;23096;50.892;16.746;2022-11-21T01:03:46;98376.09;;;-1.59;72.07
37200;BME280;23096;50.892;16.746;2022-11-21T01:06:14;98372.30;;;-1.57;72.09
37200;BME280;23096;50.892;16.746;2022-11-21T01:08:41;98373.15;;;-1.55;72.12
37200;BME280;23096;50.892;16.746;2022-11-21T01:11:08;98368.11;;;-1.52;72.18
37200;BME280;23096;50.892;16.746;2022-11-21T01:13:36;98363.91;;;-1.48;72.21
37200;BME280;23096;50.892;16.746;2022-11-21T01:16:09;98358.45;;;-1.45;72.23
37200;BME280;23096;50.892;16.746;2022-11-21T01:18:41;98357.17;;;-1.42;72.26
37200;BME280;23096;50.892;16.746;2022-11-21T01:21:13;98346.22;;;-1.36;72.31
37200;BME280;23096;50.892;16.746;2022-11-21T01:23:42;98346.25;;;-1.30;72.34
37200;BME280;23096;50.892;16.746;2022-11-21T01:26:10;98326.45;;;-1.24;72.39
37200;BME280;23096;50.892;16.746;2022-11-21T01:28:38;98328.14;;;-1.17;72.42
37200;BME280;23096;50.892;16.746;2022-11-21T01:31:05;98323.50;;;-1.13;72.40
37200;BME280;23096;50.892;16.746;2022-11-21T01:33:34;98318.86;;;-1.07;72.41
37200;BME280;23096;50.892;16.746;2022-11-21T01:36:07;98312.11;;;-1.05;72.38
37200;BME280;23096;50.892;16.746;2022-11-21T01:38:41;98310.86;;;-1.04;72.31
37200;BME280;23096;50.892;16.746;2022-11-21T01:41:10;98309.59;;;-1.04;72.32
37200;BME280;23096;50.892;16.746;2022-11-21T01:43:37;98310.45;;;-1.05;72.29
37200;BME280;23096;50.892;16.746;2022-11-21T01:46:19;98311.27;;;-1.07;72.27
37200;BME280;23096;50.892;16.746;2022-11-21T01:54:19;98328.14;;;-1.19;72.27
37200;BME280;23096;50.892;16.746;2022-11-21T01:57:05;98336.14;;;-1.22;72.30
37200;BME280;23096;50.892;16.746;2022-11-21T01:59:40;98337.00;;;-1.23;72.34
37200;BME280;23096;50.892;16.746;2022-11-21T02:02:09;98338.27;;;-1.23;72.40
37200;BME280;23096;50.892;16.746;2022-11-21T02:04:35;98327.29;;;-1.22;72.43
37200;BME280;23096;50.892;16.746;2022-11-21T02:07:02;98318.45;;;-1.21;72.50
37200;BME280;23096;50.892;16.746;2022-11-21T02:09:29;98313.80;;;-1.18;72.54
37200;BME280;23096;50.892;16.746;2022-11-21T02:12:10;98306.66;;;-1.16;72.57
37200;BME280;23096;50.892;16.746;2022-11-21T02:14:38;98302.44;;;-1.13;72.56
37200;BME280;23096;50.892;16.746;2022-11-21T02:17:05;98303.71;;;-1.10;72.58
37200;BME280;23096;50.892;16.746;2022-11-21T02:25:23;98278.84;;;-1.08;72.67
37200;BME280;23096;50.892;16.746;2022-11-21T02:27:27;98271.26;;;-1.05;72.71
37200;BME280;23096;50.892;16.746;2022-11-21T02:29:53;98272.92;;;-1.02;72.74
37200;BME280;23096;50.892;16.746;2022-11-21T02:32:23;98263.25;;;-1.00;72.77
37200;BME280;23096;50.892;16.746;2022-11-21T02:34:51;98262.83;;;-0.96;72.81
37200;BME280;23096;50.892;16.746;2022-11-21T02:37:17;98252.68;;;-0.93;72.80
37200;BME280;23096;50.892;16.746;2022-11-21T02:39:43;98250.16;;;-0.91;72.78
37200;BME280;23096;50.892;16.746;2022-11-21T02:42:15;98243.00;;;-0.90;72.81
37200;BME280;23096;50.892;16.746;2022-11-21T02:44:56;98238.78;;;-0.88;72.80
37200;BME280;23096;50.892;16.746;2022-11-21T02:47:31;98242.57;;;-0.88;72.79
37200;BME280;23096;50.892;16.746;2022-11-21T02:50:06;98240.87;;;-0.89;72.79
37200;BME280;23096;50.892;16.746;2022-11-21T02:52:45;98235.81;;;-0.89;72.80
37200;BME280;23096;50.892;16.746;2022-11-21T02:55:11;98230.35;;;-0.90;72.78
37200;BME280;23096;50.892;16.746;2022-11-21T02:57:38;98226.56;;;-0.90;72.79
37200;BME280;23096;50.892;16.746;2022-11-21T03:00:05;98221.50;;;-0.92;72.81
37200;BME280;23096;50.892;16.746;2022-11-21T03:02:31;98205.48;;;-0.94;72.78
37200;BME280;23096;50.892;16.746;2022-11-21T03:04:57;98211.81;;;-0.95;72.82
37200;BME280;23096;50.892;16.746;2022-11-21T03:07:23;98203.80;;;-0.97;72.83
37200;BME280;23096;50.892;16.746;2022-11-21T03:09:49;98211.81;;;-0.97;72.86
37200;BME280;23096;50.892;16.746;2022-11-21T03:12:15;98202.13;;;-0.98;72.87
37200;BME280;23096;50.892;16.746;2022-11-21T03:14:40;98192.44;;;-1.00;72.86
37200;BME280;23096;50.892;16.746;2022-11-21T03:17:06;98195.80;;;-1.02;72.88
37200;BME280;23096;50.892;16.746;2022-11-21T03:19:36;98184.85;;;-1.03;72.90
37200;BME280;23096;50.892;16.746;2022-11-21T03:22:00;98187.37;;;-1.04;72.94
37200;BME280;23096;50.892;16.746;2022-11-21T03:24:26;98181.46;;;-1.02;72.99
37200;BME280;23096;50.892;16.746;2022-11-21T03:26:51;98170.08;;;-1.02;72.97
37200;BME280;23096;50.892;16.746;2022-11-21T03:29:17;98173.88;;;-1.00;73.05
37200;BME280;23096;50.892;16.746;2022-11-21T03:31:43;98167.16;;;-1.00;73.02
37200;BME280;23096;50.892;16.746;2022-11-21T03:34:09;98164.19;;;-0.99;73.06
37200;BME280;23096;50.892;16.746;2022-11-21T03:36:35;98160.80;;;-0.98;73.06
37200;BME280;23096;50.892;16.746;2022-11-21T03:39:01;98154.08;;;-0.98;73.13
37200;BME280;23096;50.892;16.746;2022-11-21T03:41:28;98146.89;;;-0.95;73.15
37200;BME280;23096;50.892;16.746;2022-11-21T03:43:58;98139.73;;;-0.95;73.15
37200;BME280;23096;50.892;16.746;2022-11-21T03:46:34;98139.30;;;-0.93;73.13
37200;BME280;23096;50.892;16.746;2022-11-21T03:49:04;98141.43;;;-0.96;73.12
37200;BME280;23096;50.892;16.746;2022-11-21T03:51:30;98133.84;;;-0.98;73.14
37200;BME280;23096;50.892;16.746;2022-11-21T03:53:57;98128.36;;;-0.99;73.16
37200;BME280;23096;50.892;16.746;2022-11-21T03:56:24;98130.48;;;-1.00;73.24
37200;BME280;23096;50.892;16.746;2022-11-21T03:58:50;98117.80;;;-0.98;73.27
37200;BME280;23096;50.892;16.746;2022-11-21T04:01:16;98121.20;;;-0.98;73.30
37200;BME280;23096;50.892;16.746;2022-11-21T04:03:43;98109.82;;;-0.96;73.33
37200;BME280;23096;50.892;16.746;2022-11-21T04:06:10;98107.26;;;-0.94;73.35
37200;BME280;23096;50.892;16.746;2022-11-21T04:08:37;98106.03;;;-0.96;73.30
37200;BME280;23096;50.892;16.746;2022-11-21T04:11:03;98090.86;;;-0.99;73.25
37200;BME280;23096;50.892;16.746;2022-11-21T04:13:29;98085.37;;;-1.02;73.30
37200;BME280;23096;50.892;16.746;2022-11-21T04:15:55;98091.29;;;-1.04;73.30
37200;BME280;23096;50.892;16.746;2022-11-21T04:18:21;98087.50;;;-1.06;73.32
37200;BME280;23096;50.892;16.746;2022-11-21T04:20:47;98084.14;;;-1.08;73.35
37200;BME280;23096;50.892;16.746;2022-11-21T04:23:13;98082.05;;;-1.07;73.41
37200;BME280;23096;50.892;16.746;2022-11-21T04:25:39;98080.34;;;-1.05;73.46
37200;BME280;23096;50.892;16.746;2022-11-21T04:28:05;98076.12;;;-1.03;73.48
37200;BME280;23096;50.892;16.746;2022-11-21T04:30:32;98083.27;;;-0.99;73.53
37200;BME280;23096;50.892;16.746;2022-11-21T04:32:58;98078.61;;;-0.95;73.58
37200;BME280;23096;50.892;16.746;2022-11-21T04:35:24;98066.39;;;-0.92;73.60
37200;BME280;23096;50.892;16.746;2022-11-21T04:37:51;98073.94;;;-0.89;73.62
37200;BME280;23096;50.892;16.746;2022-11-21T04:40:17;98065.95;;;-0.89;73.62
37200;BME280;23096;50.892;16.746;2022-11-21T04:42:44;98057.93;;;-0.87;73.63
37200;BME280;23096;50.892;16.746;2022-11-21T04:45:11;98049.08;;;-0.88;73.56
37200;BME280;23096;50.892;16.746;2022-11-21T04:47:38;98044.89;;;-0.92;73.51
37200;BME280;23096;50.892;16.746;2022-11-21T04:50:05;98047.00;;;-0.97;73.50
37200;BME280;23096;50.892;16.746;2022-11-21T04:52:32;98044.91;;;-0.99;73.53
37200;BME280;23096;50.892;16.746;2022-11-21T04:54:58;98042.81;;;-1.01;73.56
37200;BME280;23096;50.892;16.746;2022-11-21T04:57:26;98045.77;;;-1.03;73.58
37200;BME280;23096;50.892;16.746;2022-11-21T04:59:52;98044.08;;;-1.04;73.62
37200;BME280;23096;50.892;16.746;2022-11-21T05:02:18;98047.91;;;-1.07;73.59
37200;BME280;23096;50.892;16.746;2022-11-21T05:04:44;98036.53;;;-1.10;73.58
37200;BME280;23096;50.892;16.746;2022-11-21T05:07:10;98039.89;;;-1.11;73.61
37200;BME280;23096;50.892;16.746;2022-11-21T05:09:36;98040.77;;;-1.13;73.63
37200;BME280;23096;50.892;16.746;2022-11-21T05:12:02;98029.39;;;-1.15;73.68
37200;BME280;23096;50.892;16.746;2022-11-21T05:14:46;98023.50;;;-1.14;73.76
37200;BME280;23096;50.892;16.746;2022-11-21T05:17:12;98012.09;;;-1.12;73.81
37200;BME280;23096;50.892;16.746;2022-11-21T05:19:38;98003.67;;;-1.11;73.84
37200;BME280;23096;50.892;16.746;2022-11-21T05:22:04;98000.30;;;-1.10;73.83
37200;BME280;23096;50.892;16.746;2022-11-21T05:24:30;97993.55;;;-1.11;73.80
37200;BME280;23096;50.892;16.746;2022-11-21T05:26:55;97989.37;;;-1.14;73.81
37200;BME280;23096;50.892;16.746;2022-11-21T05:29:21;97976.73;;;-1.16;73.83
37200;BME280;23096;50.892;16.746;2022-11-21T05:31:47;97984.71;;;-1.13;74.03
37200;BME280;23096;50.892;16.746;2022-11-21T05:34:13;97991.41;;;-1.00;74.34
37200;BME280;23096;50.892;16.746;2022-11-21T05:36:39;97987.12;;;-0.90;74.30
37200;BME280;23096;50.892;16.746;2022-11-21T05:39:05;97995.98;;;-0.91;74.03
37200;BME280;23096;50.892;16.746;2022-11-21T05:41:31;97999.38;;;-0.97;74.03
37200;BME280;23096;50.892;16.746;2022-11-21T05:43:57;97988.87;;;-1.03;74.00
37200;BME280;23096;50.892;16.746;2022-11-21T05:46:23;97977.11;;;-1.07;74.09
37200;BME280;23096;50.892;16.746;2022-11-21T05:48:51;97977.94;;;-1.06;74.17
37200;BME280;23096;50.892;16.746;2022-11-21T05:51:18;97979.20;;;-1.05;74.25
37200;BME280;23096;50.892;16.746;2022-11-21T05:53:44;97982.56;;;-1.06;74.25
37200;BME280;23096;50.892;16.746;2022-11-21T05:56:11;97975.84;;;-1.08;74.21
37200;BME280;23096;50.892;16.746;2022-11-21T05:58:44;97979.26;;;-1.16;74.25
37200;BME280;23096;50.892;16.746;2022-11-21T06:01:11;97980.09;;;-1.18;74.43
37200;BME280;23096;50.892;16.746;2022-11-21T06:03:39;97972.06;;;-1.13;74.65
37200;BME280;23096;50.892;16.746;2022-11-21T06:06:11;97967.83;;;-1.06;74.76
37200;BME280;23096;50.892;16.746;2022-11-21T06:08:42;97963.59;;;-1.00;74.79
37200;BME280;23096;50.892;16.746;2022-11-21T06:11:10;97955.56;;;-0.96;74.81
37200;BME280;23096;50.892;16.746;2022-11-21T06:13:37;97954.69;;;-0.93;74.84
37200;BME280;23096;50.892;16.746;2022-11-21T06:16:05;97947.92;;;-0.91;74.85
37200;BME280;23096;50.892;16.746;2022-11-21T06:18:35;97934.00;;;-0.88;74.93
37200;BME280;23096;50.892;16.746;2022-11-21T06:21:06;97927.64;;;-0.85;75.00
37200;BME280;23096;50.892;16.746;2022-11-21T06:23:34;97934.38;;;-0.81;75.04
37200;BME280;23096;50.892;16.746;2022-11-21T06:26:01;97931.80;;;-0.78;74.98
37200;BME280;23096;50.892;16.746;2022-11-21T06:28:29;97927.62;;;-0.81;74.97
37200;BME280;23096;50.892;16.746;2022-11-21T06:31:08;97929.70;;;-0.79;75.12
37200;BME280;23096;50.892;16.746;2022-11-21T06:33:35;97932.22;;;-0.74;75.23
37200;BME280;23096;50.892;16.746;2022-11-21T06:36:06;97931.32;;;-0.67;75.34
37200;BME280;23096;50.892;16.746;2022-11-21T06:38:31;97936.75;;;-0.61;75.45
37200;BME280;23096;50.892;16.746;2022-11-21T06:40:57;97937.13;;;-0.55;75.49
37200;BME280;23096;50.892;16.746;2022-11-21T06:43:23;97930.35;;;-0.52;75.53
37200;BME280;23096;50.892;16.746;2022-11-21T06:45:49;97936.22;;;-0.47;75.60
37200;BME280;23096;50.892;16.746;2022-11-21T06:48:15;97934.91;;;-0.44;75.60
37200;BME280;23096;50.892;16.746;2022-11-21T06:50:40;97940.38;;;-0.41;75.62
37200;BME280;23096;50.892;16.746;2022-11-21T06:53:06;97937.84;;;-0.40;75.62
37200;BME280;23096;50.892;16.746;2022-11-21T06:55:32;97936.57;;;-0.38;75.66
37200;BME280;23096;50.892;16.746;2022-11-21T06:57:58;97942.45;;;-0.36;75.75
37200;BME280;23096;50.892;16.746;2022-11-21T07:00:25;97945.80;;;-0.32;75.76
37200;BME280;23096;50.892;16.746;2022-11-21T07:02:52;97934.36;;;-0.29;75.83
37200;BME280;23096;50.892;16.746;2022-11-21T07:05:19;97941.50;;;-0.26;75.88
37200;BME280;23096;50.892;16.746;2022-11-21T07:07:47;97938.95;;;-0.24;75.93
37200;BME280;23096;50.892;16.746;2022-11-21T07:10:13;97945.26;;;-0.20;75.98
37200;BME280;23096;50.892;16.746;2022-11-21T07:12:39;97945.63;;;-0.15;76.01
37200;BME280;23096;50.892;16.746;2022-11-21T07:15:23;97946.02;;;-0.13;76.04
37200;BME280;23096;50.892;16.746;2022-11-21T07:17:49;97945.61;;;-0.11;76.02
37200;BME280;23096;50.892;16.746;2022-11-21T07:20:15;97944.72;;;-0.08;76.02
37200;BME280;23096;50.892;16.746;2022-11-21T07:22:41;97956.55;;;-0.07;76.06
37200;BME280;23096;50.892;16.746;2022-11-21T07:25:07;97946.80;;;-0.06;76.10
37200;BME280;23096;50.892;16.746;2022-11-21T07:27:33;97952.23;;;-0.01;76.27
37200;BME280;23096;50.892;16.746;2022-11-21T07:29:59;97957.26;;;0.06;76.31
37200;BME280;23096;50.892;16.746;2022-11-21T07:32:25;97949.95;;;0.16;76.51
37200;BME280;23096;50.892;16.746;2022-11-21T07:34:52;97951.11;;;0.25;76.53
37200;BME280;23096;50.892;16.746;2022-11-21T07:37:18;97945.53;;;0.35;76.56
37200;BME280;23096;50.892;16.746;2022-11-21T07:39:44;97941.20;;;0.43;76.59
37200;BME280;23096;50.892;16.746;2022-11-21T07:42:10;97939.42;;;0.51;76.65
37200;BME280;23096;50.892;16.746;2022-11-21T07:44:36;97941.47;;;0.58;76.66
37200;BME280;23096;50.892;16.746;2022-11-21T07:47:02;97944.29;;;0.67;76.73
37200;BME280;23096;50.892;16.746;2022-11-21T07:49:28;97949.30;;;0.73;76.73
37200;BME280;23096;50.892;16.746;2022-11-21T07:51:53;97944.56;;;0.80;76.78
37200;BME280;23096;50.892;16.746;2022-11-21T07:54:19;97941.47;;;0.88;76.90
37200;BME280;23096;50.892;16.746;2022-11-21T07:56:45;97944.73;;;0.98;76.99
37200;BME280;23096;50.892;16.746;2022-11-21T07:59:13;97939.52;;;1.09;77.08
37200;BME280;23096;50.892;16.746;2022-11-21T08:01:39;97948.66;;;1.18;77.10
37200;BME280;23096;50.892;16.746;2022-11-21T08:04:05;97948.12;;;1.27;77.32
37200;BME280;23096;50.892;16.746;2022-11-21T08:06:33;97935.94;;;1.48;77.59
37200;BME280;23096;50.892;16.746;2022-11-21T08:08:58;97934.86;;;1.61;77.48
37200;BME280;23096;50.892;16.746;2022-11-21T08:11:24;97938.98;;;1.68;77.36
37200;BME280;23096;50.892;16.746;2022-11-21T08:13:50;97932.20;;;1.70;77.26
37200;BME280;23096;50.892;16.746;2022-11-21T08:16:16;97937.66;;;1.71;77.23
37200;BME280;23096;50.892;16.746;2022-11-21T08:18:41;97944.30;;;1.80;77.45
37200;BME280;23096;50.892;16.746;2022-11-21T08:21:07;97938.98;;;1.94;77.66
37200;BME280;23096;50.892;16.746;2022-11-21T08:23:33;97930.60;;;2.11;77.87
37200;BME280;23096;50.892;16.746;2022-11-21T08:25:59;97941.27;;;2.30;77.93
37200;BME280;23096;50.892;16.746;2022-11-21T08:28:25;97934.44;;;2.54;78.17
37200;BME280;23096;50.892;16.746;2022-11-21T08:30:51;97950.55;;;2.74;78.18
37200;BME280;23096;50.892;16.746;2022-11-21T08:33:17;97940.88;;;2.91;78.08
37200;BME280;23096;50.892;16.746;2022-11-21T08:35:43;97942.77;;;3.01;77.90
37200;BME280;23096;50.892;16.746;2022-11-21T08:38:09;97938.30;;;3.12;78.00
37200;BME280;23096;50.892;16.746;2022-11-21T08:40:35;97943.17;;;3.21;77.86
37200;BME280;23096;50.892;16.746;2022-11-21T08:43:06;97935.33;;;3.31;77.99
37200;BME280;23096;50.892;16.746;2022-11-21T08:45:30;97936.34;;;3.41;77.90
37200;BME280;23096;50.892;16.746;2022-11-21T08:47:56;97936.63;;;3.47;77.83
37200;BME280;23096;50.892;16.746;2022-11-21T08:50:22;97945.80;;;3.54;77.78
37200;BME280;23096;50.892;16.746;2022-11-21T08:52:48;97955.45;;;3.59;77.66
37200;BME280;23096;50.892;16.746;2022-11-21T08:55:14;97956.20;;;3.63;77.67
37200;BME280;23096;50.892;16.746;2022-11-21T08:57:41;97957.25;;;3.72;77.72
37200;BME280;23096;50.892;16.746;2022-11-21T09:00:08;97963.46;;;3.78;77.63
37200;BME280;23096;50.892;16.746;2022-11-21T09:02:37;97967.50;;;3.87;77.62
37200;BME280;23096;50.892;16.746;2022-11-21T09:05:03;97966.05;;;3.93;77.55
37200;BME280;23096;50.892;16.746;2022-11-21T09:07:30;97965.84;;;4.02;77.59
37200;BME280;23096;50.892;16.746;2022-11-21T09:09:56;97971.56;;;4.11;77.56
37200;BME280;23096;50.892;16.746;2022-11-21T09:12:21;97969.73;;;4.16;77.42
37200;BME280;23096;50.892;16.746;2022-11-21T09:14:47;97966.22;;;4.20;77.33
37200;BME280;23096;50.892;16.746;2022-11-21T09:17:32;97967.88;;;4.22;77.29
37200;BME280;23096;50.892;16.746;2022-11-21T09:20:16;97970.73;;;4.27;77.11
37200;BME280;23096;50.892;16.746;2022-11-21T09:22:42;97972.01;;;4.27;77.10
37200;BME280;23096;50.892;16.746;2022-11-21T09:25:09;97967.63;;;4.32;77.06
37200;BME280;23096;50.892;16.746;2022-11-21T09:27:35;97976.10;;;4.32;76.95
37200;BME280;23096;50.892;16.746;2022-11-21T09:30:01;97979.00;;;4.35;76.95
37200;BME280;23096;50.892;16.746;2022-11-21T09:32:27;97976.86;;;4.36;76.80
37200;BME280;23096;50.892;16.746;2022-11-21T09:34:53;97975.99;;;4.37;76.76
37200;BME280;23096;50.892;16.746;2022-11-21T09:37:19;97974.72;;;4.37;76.75
37200;BME280;23096;50.892;16.746;2022-11-21T09:39:45;97968.20;;;4.41;76.76
37200;BME280;23096;50.892;16.746;2022-11-21T09:45:06;97965.95;;;4.46;76.60
37200;BME280;23096;50.892;16.746;2022-11-21T09:47:41;97970.64;;;4.46;76.51
37200;BME280;23096;50.892;16.746;2022-11-21T09:58:18;97969.03;;;4.73;76.60
37200;BME280;23096;50.892;16.746;2022-11-21T10:00:44;97958.14;;;4.82;76.48
37200;BME280;23096;50.892;16.746;2022-11-21T10:03:11;97962.56;;;4.91;76.49
37200;BME280;23096;50.892;16.746;2022-11-21T10:05:43;97957.75;;;4.95;76.38
37200;BME280;23096;50.892;16.746;2022-11-21T10:11:17;97962.62;;;5.03;76.21
37200;BME280;23096;50.892;16.746;2022-11-21T10:14:06;97957.03;;;5.05;76.14
37200;BME280;23096;50.892;16.746;2022-11-21T10:16:48;97960.33;;;5.09;76.08
37200;BME280;23096;50.892;16.746;2022-11-21T10:22:09;97975.20;;;5.09;75.84
37200;BME280;23096;50.892;16.746;2022-11-21T10:27:11;97968.55;;;5.04;75.68
37200;BME280;23096;50.892;16.746;2022-11-21T10:29:44;97965.22;;;5.02;75.66
37200;BME280;23096;50.892;16.746;2022-11-21T10:32:19;97972.92;;;5.00;75.59
37200;BME280;23096;50.892;16.746;2022-11-21T10:34:50;97968.71;;;4.99;75.54
37200;BME280;23096;50.892;16.746;2022-11-21T10:37:23;97969.58;;;4.98;75.51
37200;BME280;23096;50.892;16.746;2022-11-21T10:39:52;97970.48;;;4.97;75.48
37200;BME280;23096;50.892;16.746;2022-11-21T10:42:39;97975.17;;;4.96;75.40
37200;BME280;23096;50.892;16.746;2022-11-21T10:45:13;97969.69;;;4.95;75.40
37200;BME280;23096;50.892;16.746;2022-11-21T10:47:48;97978.22;;;4.94;75.35
37200;BME280;23096;50.892;16.746;2022-11-21T10:55:34;97981.70;;;4.91;75.26
37200;BME280;23096;50.892;16.746;2022-11-21T10:58:00;97981.26;;;4.92;75.23
37200;BME280;23096;50.892;16.746;2022-11-21T11:00:27;97978.30;;;4.91;75.21
37200;BME280;23096;50.892;16.746;2022-11-21T11:03:04;97986.33;;;4.93;75.26
37200;BME280;23096;50.892;16.746;2022-11-21T11:05:32;97982.88;;;4.94;75.23
37200;BME280;23096;50.892;16.746;2022-11-21T11:08:05;97986.58;;;4.99;75.23
37200;BME280;23096;50.892;16.746;2022-11-21T11:10:30;97992.92;;;5.01;75.21
37200;BME280;23096;50.892;16.746;2022-11-21T11:12:57;97989.84;;;5.04;75.25
37200;BME280;23096;50.892;16.746;2022-11-21T11:15:52;97987.13;;;5.09;75.25
37200;BME280;23096;50.892;16.746;2022-11-21T11:18:39;97993.89;;;5.11;75.18
37200;BME280;23096;50.892;16.746;2022-11-21T11:21:10;97993.44;;;5.12;75.14
37200;BME280;23096;50.892;16.746;2022-11-21T11:23:40;97995.05;;;5.14;75.10
37200;BME280;23096;50.892;16.746;2022-11-21T11:26:17;97998.50;;;5.13;75.05
37200;BME280;23096;50.892;16.746;2022-11-21T11:28:47;97998.50;;;5.13;75.02
37200;BME280;23096;50.892;16.746;2022-11-21T11:31:13;97995.50;;;5.14;75.03
37200;BME280;23096;50.892;16.746;2022-11-21T11:33:49;97995.45;;;5.15;75.01
37200;BME280;23096;50.892;16.746;2022-11-21T11:36:18;97987.80;;;5.15;74.94
37200;BME280;23096;50.892;16.746;2022-11-21T11:41:37;97986.86;;;5.18;74.94
37200;BME280;23096;50.892;16.746;2022-11-21T11:44:24;97979.23;;;5.16;74.90
37200;BME280;23096;50.892;16.746;2022-11-21T11:47:12;97981.80;;;5.16;74.89
37200;BME280;23096;50.892;16.746;2022-11-21T11:50:02;97977.92;;;5.18;74.88
37200;BME280;23096;50.892;16.746;2022-11-21T11:55:44;97987.76;;;5.17;74.83
37200;BME280;23096;50.892;16.746;2022-11-21T11:58:19;97989.03;;;5.17;74.79
37200;BME280;23096;50.892;16.746;2022-11-21T12:00:52;97987.76;;;5.17;74.78
37200;BME280;23096;50.892;16.746;2022-11-21T12:03:28;97996.66;;;5.18;74.79
37200;BME280;23096;50.892;16.746;2022-11-21T12:14:29;98006.34;;;5.22;74.71
37200;BME280;23096;50.892;16.746;2022-11-21T12:17:20;98014.34;;;5.25;74.71
37200;BME280;23096;50.892;16.746;2022-11-21T12:19:48;98017.72;;;5.25;74.67
37200;BME280;23096;50.892;16.746;2022-11-21T12:22:15;98019.03;;;5.24;74.66
37200;BME280;23096;50.892;16.746;2022-11-21T12:24:41;98023.72;;;5.24;74.63
37200;BME280;23096;50.892;16.746;2022-11-21T12:27:16;98025.83;;;5.25;74.62
37200;BME280;23096;50.892;16.746;2022-11-21T12:30:01;98029.66;;;5.25;74.62
37200;BME280;23096;50.892;16.746;2022-11-21T12:32:46;98029.66;;;5.25;74.55
37200;BME280;23096;50.892;16.746;2022-11-21T12:37:52;98062.53;;;5.06;74.04
37200;BME280;23096;50.892;16.746;2022-11-21T12:45:45;98069.36;;;4.26;73.77
37200;BME280;23096;50.892;16.746;2022-11-21T12:48:19;98081.67;;;4.09;73.75
37200;BME280;23096;50.892;16.746;2022-11-21T12:54:37;98087.13;;;3.75;73.91
37200;BME280;23096;50.892;16.746;2022-11-21T12:57:07;98104.38;;;3.62;73.96
37200;BME280;23096;50.892;16.746;2022-11-21T13:05:23;98112.53;;;3.39;74.09
37200;BME280;23096;50.892;16.746;2022-11-21T13:07:59;98116.65;;;3.24;73.95
37200;BME280;23096;50.892;16.746;2022-11-21T13:10:32;98119.98;;;3.06;74.08
37200;BME280;23096;50.892;16.746;2022-11-21T13:13:14;98126.55;;;2.96;74.27
37200;BME280;23096;50.892;16.746;2022-11-21T13:16:05;98123.69;;;2.90;74.26
37200;BME280;23096;50.892;16.746;2022-11-21T13:18:39;98133.16;;;2.82;74.38
37200;BME280;23096;50.892;16.746;2022-11-21T13:21:03;98134.58;;;2.74;74.47
37200;BME280;23096;50.892;16.746;2022-11-21T13:23:42;98136.31;;;2.72;74.54
37200;BME280;23096;50.892;16.746;2022-11-21T13:29:09;98142.84;;;2.63;74.75
37200;BME280;23096;50.892;16.746;2022-11-21T13:31:36;98147.08;;;2.61;74.79
37200;BME280;23096;50.892;16.746;2022-11-21T13:34:03;98149.68;;;2.59;74.92
37200;BME280;23096;50.892;16.746;2022-11-21T13:58:10;98169.64;;;2.29;75.53
37200;BME280;23096;50.892;16.746;2022-11-21T14:01:06;98175.62;;;2.27;75.59
37200;BME280;23096;50.892;16.746;2022-11-21T14:06:19;98187.08;;;2.25;75.79
37200;BME280;23096;50.892;16.746;2022-11-21T14:09:05;98188.81;;;2.23;75.74
37200;BME280;23096;50.892;16.746;2022-11-21T14:12:01;98193.98;;;2.16;75.76
37200;BME280;23096;50.892;16.746;2022-11-21T14:14:24;98206.78;;;2.11;75.76
37200;BME280;23096;50.892;16.746;2022-11-21T14:19:54;98209.14;;;1.93;75.74
37200;BME280;23096;50.892;16.746;2022-11-21T14:24:57;98212.86;;;1.67;75.71
37200;BME280;23096;50.892;16.746;2022-11-21T14:27:29;98213.44;;;1.56;75.72
37200;BME280;23096;50.892;16.746;2022-11-21T14:29:57;98214.74;;;1.51;75.86
37200;BME280;23096;50.892;16.746;2022-11-21T14:32:26;98218.64;;;1.45;75.81
37200;BME280;23096;50.892;16.746;2022-11-21T14:35:06;98219.13;;;1.39;75.83
37200;BME280;23096;50.892;16.746;2022-11-21T14:37:38;98220.48;;;1.31;75.84
37200;BME280;23096;50.892;16.746;2022-11-21T14:40:05;98219.27;;;1.23;75.93
37200;BME280;23096;50.892;16.746;2022-11-21T14:42:35;98221.91;;;1.15;75.91
37200;BME280;23096;50.892;16.746;2022-11-21T14:45:05;98221.53;;;1.11;75.98